<?xml version="1.0" encoding="UTF-8" standalone="no" ?>
<gpx xmlns="http://www.topografix.com/GPX/1/1" xmlns:xsi="http://www.w3.org/2001/XMLSchema-instance" xsi:schemaLocation="http://www.topografix.com/GPX/1/1 http://www.topografix.com/GPX/1/1/gpx.xsd" version="1.1" creator="VisuGPX - https://www.visugpx.com">
  <metadata>
    <name>Charquemont - Fournet - Le Russey - Bonnetage - Frambouhans - Maîche - Charquemont - 21199 - UtagawaVTT.com</name>
  </metadata>
  <trk>
    <name><![CDATA[Charquemont - Fournet - Le Russey - Bonnetage - Frambouhans - Maîche - Charquemont - 21199 - UtagawaVTT.com]]></name>
    <trkseg>
      <trkpt lat="47.20097" lon="6.84101">
        <ele>868.532471</ele>
        <time>2019-04-22T11:26:16Z</time>
      </trkpt>
      <trkpt lat="47.2005" lon="6.84069">
        <ele>869.089905</ele>
        <time>2019-04-22T11:26:36Z</time>
      </trkpt>
      <trkpt lat="47.20023" lon="6.84051">
        <ele>879.9</ele>
        <time>2019-04-22T11:27:22Z</time>
      </trkpt>
      <trkpt lat="47.19941" lon="6.84055">
        <ele>873.768738</ele>
        <time>2019-04-22T11:27:44Z</time>
      </trkpt>
      <trkpt lat="47.19885" lon="6.84054">
        <ele>876.6745</ele>
        <time>2019-04-22T11:28:08Z</time>
      </trkpt>
      <trkpt lat="47.19831" lon="6.84047">
        <ele>880.86499</ele>
        <time>2019-04-22T11:29:16Z</time>
      </trkpt>
      <trkpt lat="47.19763" lon="6.84038">
        <ele>908.2</ele>
        <time>2019-04-22T11:31:23Z</time>
      </trkpt>
      <trkpt lat="47.1973" lon="6.84029">
        <ele>911.6</ele>
        <time>2019-04-22T11:32:56Z</time>
      </trkpt>
      <trkpt lat="47.19704" lon="6.84013">
        <ele>911.4</ele>
        <time>2019-04-22T11:45:02Z</time>
      </trkpt>
      <trkpt lat="47.1967" lon="6.84034">
        <ele>897.161621</ele>
        <time>2019-04-22T11:45:30Z</time>
      </trkpt>
      <trkpt lat="47.19659" lon="6.84033">
        <ele>913</ele>
        <time>2019-04-22T11:45:56Z</time>
      </trkpt>
      <trkpt lat="47.19638" lon="6.84025">
        <ele>912.6</ele>
        <time>2019-04-22T11:46:47Z</time>
      </trkpt>
      <trkpt lat="47.19628" lon="6.8402">
        <ele>912.4</ele>
        <time>2019-04-22T11:49:36Z</time>
      </trkpt>
      <trkpt lat="47.1959" lon="6.83968">
        <ele>906</ele>
        <time>2019-04-22T11:50:42Z</time>
      </trkpt>
      <trkpt lat="47.19543" lon="6.83945">
        <ele>908.7</ele>
        <time>2019-04-22T11:52:33Z</time>
      </trkpt>
      <trkpt lat="47.19491" lon="6.83951">
        <ele>914.5</ele>
        <time>2019-04-22T11:54:06Z</time>
      </trkpt>
      <trkpt lat="47.19438" lon="6.84009">
        <ele>920</ele>
        <time>2019-04-22T11:56:21Z</time>
      </trkpt>
      <trkpt lat="47.19368" lon="6.84031">
        <ele>922.5</ele>
        <time>2019-04-22T11:56:35Z</time>
      </trkpt>
      <trkpt lat="47.19306" lon="6.84029">
        <ele>924.2</ele>
        <time>2019-04-22T11:56:47Z</time>
      </trkpt>
      <trkpt lat="47.1924" lon="6.84023">
        <ele>924.8</ele>
        <time>2019-04-22T11:56:58Z</time>
      </trkpt>
      <trkpt lat="47.19205" lon="6.84024">
        <ele>916.366699</ele>
        <time>2019-04-22T11:57:12Z</time>
      </trkpt>
      <trkpt lat="47.1919" lon="6.84028">
        <ele>923.8</ele>
        <time>2019-04-22T11:57:42Z</time>
      </trkpt>
      <trkpt lat="47.19179" lon="6.84049">
        <ele>924.2</ele>
        <time>2019-04-22T11:58:00Z</time>
      </trkpt>
      <trkpt lat="47.19169" lon="6.84082">
        <ele>924.9</ele>
        <time>2019-04-22T11:58:20Z</time>
      </trkpt>
      <trkpt lat="47.1915" lon="6.84117">
        <ele>926.7</ele>
        <time>2019-04-22T11:58:40Z</time>
      </trkpt>
      <trkpt lat="47.19032" lon="6.84165">
        <ele>927.9</ele>
        <time>2019-04-22T11:59:01Z</time>
      </trkpt>
      <trkpt lat="47.18971" lon="6.84182">
        <ele>930.852051</ele>
        <time>2019-04-22T11:59:28Z</time>
      </trkpt>
      <trkpt lat="47.18917" lon="6.84196">
        <ele>928.248596</ele>
        <time>2019-04-22T11:59:53Z</time>
      </trkpt>
      <trkpt lat="47.18647" lon="6.84275">
        <ele>941.135437</ele>
        <time>2019-04-22T12:00:15Z</time>
      </trkpt>
      <trkpt lat="47.18573" lon="6.84296">
        <ele>957.3</ele>
        <time>2019-04-22T12:01:25Z</time>
      </trkpt>
      <trkpt lat="47.18544" lon="6.84296">
        <ele>959.8</ele>
        <time>2019-04-22T12:01:40Z</time>
      </trkpt>
      <trkpt lat="47.18506" lon="6.84291">
        <ele>963</ele>
        <time>2019-04-22T12:02:00Z</time>
      </trkpt>
      <trkpt lat="47.1847" lon="6.84275">
        <ele>969.6</ele>
        <time>2019-04-22T12:02:27Z</time>
      </trkpt>
      <trkpt lat="47.18458" lon="6.84253">
        <ele>969.9</ele>
        <time>2019-04-22T12:02:53Z</time>
      </trkpt>
      <trkpt lat="47.18442" lon="6.84244">
        <ele>973.4</ele>
        <time>2019-04-22T12:03:20Z</time>
      </trkpt>
      <trkpt lat="47.18346" lon="6.84197">
        <ele>954.072998</ele>
        <time>2019-04-22T12:04:47Z</time>
      </trkpt>
      <trkpt lat="47.18329" lon="6.84176">
        <ele>949.9</ele>
        <time>2019-04-22T12:05:40Z</time>
      </trkpt>
      <trkpt lat="47.18332" lon="6.84152">
        <ele>945.1</ele>
        <time>2019-04-22T12:06:44Z</time>
      </trkpt>
      <trkpt lat="47.18333" lon="6.84105">
        <ele>943.7</ele>
        <time>2019-04-22T12:07:04Z</time>
      </trkpt>
      <trkpt lat="47.18318" lon="6.8407">
        <ele>948.3</ele>
        <time>2019-04-22T12:07:10Z</time>
      </trkpt>
      <trkpt lat="47.18282" lon="6.83978">
        <ele>960.8</ele>
        <time>2019-04-22T12:07:26Z</time>
      </trkpt>
      <trkpt lat="47.18198" lon="6.83882">
        <ele>957.1</ele>
        <time>2019-04-22T12:11:40Z</time>
      </trkpt>
      <trkpt lat="47.18152" lon="6.83844">
        <ele>939</ele>
        <time>2019-04-22T12:12:37Z</time>
      </trkpt>
      <trkpt lat="47.18118" lon="6.83808">
        <ele>941</ele>
        <time>2019-04-22T12:13:10Z</time>
      </trkpt>
      <trkpt lat="47.18071" lon="6.83704">
        <ele>924.7</ele>
        <time>2019-04-22T12:13:37Z</time>
      </trkpt>
      <trkpt lat="47.18037" lon="6.83632">
        <ele>936.2</ele>
        <time>2019-04-22T12:14:11Z</time>
      </trkpt>
      <trkpt lat="47.1796" lon="6.83511">
        <ele>918.3</ele>
        <time>2019-04-22T12:14:48Z</time>
      </trkpt>
      <trkpt lat="47.17921" lon="6.83429">
        <ele>927.5</ele>
        <time>2019-04-22T12:15:03Z</time>
      </trkpt>
      <trkpt lat="47.17883" lon="6.8339">
        <ele>921.2</ele>
        <time>2019-04-22T12:15:14Z</time>
      </trkpt>
      <trkpt lat="47.17852" lon="6.83374">
        <ele>918.6</ele>
        <time>2019-04-22T12:15:23Z</time>
      </trkpt>
      <trkpt lat="47.17807" lon="6.83352">
        <ele>898.7</ele>
        <time>2019-04-22T12:15:27Z</time>
      </trkpt>
      <trkpt lat="47.17747" lon="6.83276">
        <ele>893.7</ele>
        <time>2019-04-22T12:15:29Z</time>
      </trkpt>
      <trkpt lat="47.17724" lon="6.83246">
        <ele>908.5</ele>
        <time>2019-04-22T12:15:31Z</time>
      </trkpt>
      <trkpt lat="47.177" lon="6.83221">
        <ele>904.5</ele>
        <time>2019-04-22T12:15:35Z</time>
      </trkpt>
      <trkpt lat="47.17588" lon="6.83126">
        <ele>904.1</ele>
        <time>2019-04-22T12:15:44Z</time>
      </trkpt>
      <trkpt lat="47.17492" lon="6.83085">
        <ele>881.2</ele>
        <time>2019-04-22T12:15:47Z</time>
      </trkpt>
      <trkpt lat="47.17435" lon="6.83055">
        <ele>886.7</ele>
        <time>2019-04-22T12:15:51Z</time>
      </trkpt>
      <trkpt lat="47.17374" lon="6.83026">
        <ele>873.7</ele>
        <time>2019-04-22T12:15:55Z</time>
      </trkpt>
      <trkpt lat="47.17327" lon="6.82981">
        <ele>879.5</ele>
        <time>2019-04-22T12:15:56Z</time>
      </trkpt>
      <trkpt lat="47.17278" lon="6.82949">
        <ele>882.4</ele>
        <time>2019-04-22T12:17:46Z</time>
      </trkpt>
      <trkpt lat="47.17245" lon="6.82925">
        <ele>880.8</ele>
        <time>2019-04-22T12:17:58Z</time>
      </trkpt>
      <trkpt lat="47.17219" lon="6.829">
        <ele>895.5</ele>
        <time>2019-04-22T12:18:29Z</time>
      </trkpt>
      <trkpt lat="47.17122" lon="6.82842">
        <ele>891.8</ele>
        <time>2019-04-22T12:18:38Z</time>
      </trkpt>
      <trkpt lat="47.17072" lon="6.82816">
        <ele>912.3</ele>
        <time>2019-04-22T12:18:53Z</time>
      </trkpt>
      <trkpt lat="47.17015" lon="6.82814">
        <ele>890.718689</ele>
        <time>2019-04-22T12:19:02Z</time>
      </trkpt>
      <trkpt lat="47.16967" lon="6.82854">
        <ele>891.825012</ele>
        <time>2019-04-22T12:19:12Z</time>
      </trkpt>
      <trkpt lat="47.16925" lon="6.82908">
        <ele>895.100037</ele>
        <time>2019-04-22T12:19:30Z</time>
      </trkpt>
      <trkpt lat="47.169" lon="6.82979">
        <ele>893.693054</ele>
        <time>2019-04-22T12:19:48Z</time>
      </trkpt>
      <trkpt lat="47.16878" lon="6.83007">
        <ele>897</ele>
        <time>2019-04-22T12:19:52Z</time>
      </trkpt>
      <trkpt lat="47.16854" lon="6.83017">
        <ele>904.174133</ele>
        <time>2019-04-22T12:19:58Z</time>
      </trkpt>
      <trkpt lat="47.1684" lon="6.83018">
        <ele>899.7</ele>
        <time>2019-04-22T12:20:10Z</time>
      </trkpt>
      <trkpt lat="47.16801" lon="6.82993">
        <ele>908.5</ele>
        <time>2019-04-22T12:20:13Z</time>
      </trkpt>
      <trkpt lat="47.16753" lon="6.82956">
        <ele>910.927368</ele>
        <time>2019-04-22T12:20:29Z</time>
      </trkpt>
      <trkpt lat="47.16703" lon="6.82913">
        <ele>917.1</ele>
        <time>2019-04-22T12:20:40Z</time>
      </trkpt>
      <trkpt lat="47.16665" lon="6.82859">
        <ele>919.09552</ele>
        <time>2019-04-22T12:21:42Z</time>
      </trkpt>
      <trkpt lat="47.16631" lon="6.82807">
        <ele>916.6</ele>
        <time>2019-04-22T12:21:55Z</time>
      </trkpt>
      <trkpt lat="47.16629" lon="6.82778">
        <ele>916.7</ele>
        <time>2019-04-22T12:22:10Z</time>
      </trkpt>
      <trkpt lat="47.16638" lon="6.82758">
        <ele>917.6</ele>
        <time>2019-04-22T12:23:17Z</time>
      </trkpt>
      <trkpt lat="47.16666" lon="6.8275">
        <ele>920.9</ele>
        <time>2019-04-22T12:23:29Z</time>
      </trkpt>
      <trkpt lat="47.16769" lon="6.82857">
        <ele>924.4</ele>
        <time>2019-04-22T12:23:41Z</time>
      </trkpt>
      <trkpt lat="47.16787" lon="6.82853">
        <ele>925.5</ele>
        <time>2019-04-22T12:23:57Z</time>
      </trkpt>
      <trkpt lat="47.16808" lon="6.82842">
        <ele>927.631348</ele>
        <time>2019-04-22T12:24:19Z</time>
      </trkpt>
      <trkpt lat="47.16815" lon="6.82791">
        <ele>937.7</ele>
        <time>2019-04-22T12:24:29Z</time>
      </trkpt>
      <trkpt lat="47.16766" lon="6.82718">
        <ele>937.899536</ele>
        <time>2019-04-22T12:35:46Z</time>
      </trkpt>
      <trkpt lat="47.16724" lon="6.82665">
        <ele>937.85498</ele>
        <time>2019-04-22T12:36:00Z</time>
      </trkpt>
      <trkpt lat="47.16718" lon="6.82646">
        <ele>935.7</ele>
        <time>2019-04-22T12:36:27Z</time>
      </trkpt>
      <trkpt lat="47.16718" lon="6.82619">
        <ele>936.7</ele>
        <time>2019-04-22T12:36:48Z</time>
      </trkpt>
      <trkpt lat="47.16734" lon="6.82589">
        <ele>940</ele>
        <time>2019-04-22T12:37:06Z</time>
      </trkpt>
      <trkpt lat="47.16761" lon="6.82584">
        <ele>945</ele>
        <time>2019-04-22T12:37:29Z</time>
      </trkpt>
      <trkpt lat="47.1678" lon="6.82603">
        <ele>946.3</ele>
        <time>2019-04-22T12:37:50Z</time>
      </trkpt>
      <trkpt lat="47.16798" lon="6.82635">
        <ele>947</ele>
        <time>2019-04-22T12:38:49Z</time>
      </trkpt>
      <trkpt lat="47.1685" lon="6.82559">
        <ele>956.021423</ele>
        <time>2019-04-22T12:39:05Z</time>
      </trkpt>
      <trkpt lat="47.1686" lon="6.82551">
        <ele>954.1</ele>
        <time>2019-04-22T12:40:02Z</time>
      </trkpt>
      <trkpt lat="47.16896" lon="6.82486">
        <ele>954.4</ele>
        <time>2019-04-22T12:40:12Z</time>
      </trkpt>
      <trkpt lat="47.16931" lon="6.82398">
        <ele>958.983765</ele>
        <time>2019-04-22T12:40:29Z</time>
      </trkpt>
      <trkpt lat="47.16938" lon="6.82316">
        <ele>960.65155</ele>
        <time>2019-04-22T12:40:31Z</time>
      </trkpt>
      <trkpt lat="47.16937" lon="6.82274">
        <ele>964.3</ele>
        <time>2019-04-22T12:40:44Z</time>
      </trkpt>
      <trkpt lat="47.16955" lon="6.82241">
        <ele>963.502502</ele>
        <time>2019-04-22T12:40:57Z</time>
      </trkpt>
      <trkpt lat="47.16968" lon="6.82212">
        <ele>965.5</ele>
        <time>2019-04-22T12:41:07Z</time>
      </trkpt>
      <trkpt lat="47.16967" lon="6.82163">
        <ele>966.902527</ele>
        <time>2019-04-22T12:41:13Z</time>
      </trkpt>
      <trkpt lat="47.16958" lon="6.82001">
        <ele>969.055359</ele>
        <time>2019-04-22T12:41:35Z</time>
      </trkpt>
      <trkpt lat="47.16944" lon="6.8184">
        <ele>971.459656</ele>
        <time>2019-04-22T12:41:55Z</time>
      </trkpt>
      <trkpt lat="47.16924" lon="6.81766">
        <ele>972</ele>
        <time>2019-04-22T12:42:03Z</time>
      </trkpt>
      <trkpt lat="47.16895" lon="6.81698">
        <ele>972</ele>
        <time>2019-04-22T12:42:15Z</time>
      </trkpt>
      <trkpt lat="47.16852" lon="6.81643">
        <ele>971.412537</ele>
        <time>2019-04-22T12:42:36Z</time>
      </trkpt>
      <trkpt lat="47.1681" lon="6.8159">
        <ele>971.413879</ele>
        <time>2019-04-22T12:43:19Z</time>
      </trkpt>
      <trkpt lat="47.16771" lon="6.81531">
        <ele>974.034973</ele>
        <time>2019-04-22T12:43:31Z</time>
      </trkpt>
      <trkpt lat="47.16707" lon="6.81396">
        <ele>976.673828</ele>
        <time>2019-04-22T12:43:40Z</time>
      </trkpt>
      <trkpt lat="47.1667" lon="6.81337">
        <ele>979.674561</ele>
        <time>2019-04-22T12:43:43Z</time>
      </trkpt>
      <trkpt lat="47.16618" lon="6.81312">
        <ele>983.264893</ele>
        <time>2019-04-22T12:43:45Z</time>
      </trkpt>
      <trkpt lat="47.16562" lon="6.813">
        <ele>985.137146</ele>
        <time>2019-04-22T12:43:47Z</time>
      </trkpt>
      <trkpt lat="47.16531" lon="6.81293">
        <ele>983.1</ele>
        <time>2019-04-22T12:43:49Z</time>
      </trkpt>
      <trkpt lat="47.16515" lon="6.81269">
        <ele>988</ele>
        <time>2019-04-22T12:43:51Z</time>
      </trkpt>
      <trkpt lat="47.16498" lon="6.81194">
        <ele>990.837891</ele>
        <time>2019-04-22T12:44:03Z</time>
      </trkpt>
      <trkpt lat="47.16482" lon="6.81172">
        <ele>990</ele>
        <time>2019-04-22T12:44:31Z</time>
      </trkpt>
      <trkpt lat="47.16451" lon="6.81157">
        <ele>992.537598</ele>
        <time>2019-04-22T12:44:46Z</time>
      </trkpt>
      <trkpt lat="47.16402" lon="6.81131">
        <ele>994.07251</ele>
        <time>2019-04-22T12:45:02Z</time>
      </trkpt>
      <trkpt lat="47.1625" lon="6.80892">
        <ele>1000.963501</ele>
        <time>2019-04-22T12:45:25Z</time>
      </trkpt>
      <trkpt lat="47.16213" lon="6.80832">
        <ele>1001.74939</ele>
        <time>2019-04-22T12:45:45Z</time>
      </trkpt>
      <trkpt lat="47.16182" lon="6.80766">
        <ele>1004.940002</ele>
        <time>2019-04-22T12:45:58Z</time>
      </trkpt>
      <trkpt lat="47.16134" lon="6.80728">
        <ele>1004.25</ele>
        <time>2019-04-22T12:46:10Z</time>
      </trkpt>
      <trkpt lat="47.16099" lon="6.80669">
        <ele>1008.95459</ele>
        <time>2019-04-22T12:46:17Z</time>
      </trkpt>
      <trkpt lat="47.16078" lon="6.80594">
        <ele>1011.467163</ele>
        <time>2019-04-22T12:46:23Z</time>
      </trkpt>
      <trkpt lat="47.1607" lon="6.80553">
        <ele>1014.6</ele>
        <time>2019-04-22T12:46:34Z</time>
      </trkpt>
      <trkpt lat="47.16075" lon="6.80515">
        <ele>1017</ele>
        <time>2019-04-22T12:46:47Z</time>
      </trkpt>
      <trkpt lat="47.16119" lon="6.80365">
        <ele>1019.708496</ele>
        <time>2019-04-22T12:47:01Z</time>
      </trkpt>
      <trkpt lat="47.16148" lon="6.80301">
        <ele>1023.2</ele>
        <time>2019-04-22T12:47:12Z</time>
      </trkpt>
      <trkpt lat="47.1618" lon="6.80196">
        <ele>1017.027283</ele>
        <time>2019-04-22T12:48:34Z</time>
      </trkpt>
      <trkpt lat="47.1618" lon="6.80194">
        <ele>1016.991882</ele>
        <time>2019-04-22T12:48:45Z</time>
      </trkpt>
      <trkpt lat="47.16199" lon="6.80135">
        <ele>1012.195129</ele>
        <time>2019-04-22T12:48:48Z</time>
      </trkpt>
      <trkpt lat="47.16186" lon="6.80077">
        <ele>1008.683655</ele>
        <time>2019-04-22T12:49:22Z</time>
      </trkpt>
      <trkpt lat="47.16161" lon="6.80036">
        <ele>1025.8</ele>
        <time>2019-04-22T12:58:32Z</time>
      </trkpt>
      <trkpt lat="47.16167" lon="6.80001">
        <ele>1017.8</ele>
        <time>2019-04-22T13:01:49Z</time>
      </trkpt>
      <trkpt lat="47.16163" lon="6.79949">
        <ele>1004.686157</ele>
        <time>2019-04-22T13:02:00Z</time>
      </trkpt>
      <trkpt lat="47.16114" lon="6.79829">
        <ele>993.6</ele>
        <time>2019-04-22T13:02:05Z</time>
      </trkpt>
      <trkpt lat="47.16057" lon="6.79773">
        <ele>1008.2</ele>
        <time>2019-04-22T13:02:17Z</time>
      </trkpt>
      <trkpt lat="47.15978" lon="6.79694">
        <ele>1019.9</ele>
        <time>2019-04-22T13:03:51Z</time>
      </trkpt>
      <trkpt lat="47.15932" lon="6.79613">
        <ele>1011.5</ele>
        <time>2019-04-22T13:05:20Z</time>
      </trkpt>
      <trkpt lat="47.15864" lon="6.79502">
        <ele>1016.3</ele>
        <time>2019-04-22T13:05:26Z</time>
      </trkpt>
      <trkpt lat="47.15799" lon="6.79395">
        <ele>1006.2</ele>
        <time>2019-04-22T13:05:28Z</time>
      </trkpt>
      <trkpt lat="47.15735" lon="6.79294">
        <ele>1001.65271</ele>
        <time>2019-04-22T13:05:30Z</time>
      </trkpt>
      <trkpt lat="47.15698" lon="6.79238">
        <ele>1004.3</ele>
        <time>2019-04-22T13:05:36Z</time>
      </trkpt>
      <trkpt lat="47.15659" lon="6.7918">
        <ele>1000.545654</ele>
        <time>2019-04-22T13:09:02Z</time>
      </trkpt>
      <trkpt lat="47.15661" lon="6.79099">
        <ele>1003.161133</ele>
        <time>2019-04-22T13:16:14Z</time>
      </trkpt>
      <trkpt lat="47.15684" lon="6.79028">
        <ele>1010.014282</ele>
        <time>2019-04-22T13:16:16Z</time>
      </trkpt>
      <trkpt lat="47.15691" lon="6.78949">
        <ele>1015.382874</ele>
        <time>2019-04-22T13:24:00Z</time>
      </trkpt>
      <trkpt lat="47.15681" lon="6.78896">
        <ele>1016.8</ele>
        <time>2019-04-22T13:24:40Z</time>
      </trkpt>
      <trkpt lat="47.15721" lon="6.78896">
        <ele>1017.1</ele>
        <time>2019-04-22T13:26:20Z</time>
      </trkpt>
      <trkpt lat="47.15728" lon="6.78861">
        <ele>1018.51123</ele>
        <time>2019-04-22T13:27:53Z</time>
      </trkpt>
      <trkpt lat="47.15718" lon="6.78781">
        <ele>1016.756104</ele>
        <time>2019-04-22T13:28:00Z</time>
      </trkpt>
      <trkpt lat="47.15686" lon="6.78712">
        <ele>1013.720459</ele>
        <time>2019-04-22T13:32:06Z</time>
      </trkpt>
      <trkpt lat="47.15647" lon="6.78653">
        <ele>1010.789978</ele>
        <time>2019-04-22T13:32:35Z</time>
      </trkpt>
      <trkpt lat="47.15625" lon="6.78617">
        <ele>1008.719971</ele>
        <time>2019-04-22T13:32:50Z</time>
      </trkpt>
      <trkpt lat="47.15619" lon="6.78593">
        <ele>1007.174561</ele>
        <time>2019-04-22T13:33:09Z</time>
      </trkpt>
      <trkpt lat="47.15622" lon="6.78566">
        <ele>1005.174988</ele>
        <time>2019-04-22T13:33:27Z</time>
      </trkpt>
      <trkpt lat="47.15625" lon="6.78505">
        <ele>1000.844971</ele>
        <time>2019-04-22T13:33:35Z</time>
      </trkpt>
      <trkpt lat="47.1561" lon="6.78335">
        <ele>989.295349</ele>
        <time>2019-04-22T13:34:03Z</time>
      </trkpt>
      <trkpt lat="47.15608" lon="6.78272">
        <ele>984.753723</ele>
        <time>2019-04-22T13:34:42Z</time>
      </trkpt>
      <trkpt lat="47.1562" lon="6.78189">
        <ele>978.787476</ele>
        <time>2019-04-22T13:34:56Z</time>
      </trkpt>
      <trkpt lat="47.1563" lon="6.78108">
        <ele>974.693481</ele>
        <time>2019-04-22T13:35:12Z</time>
      </trkpt>
      <trkpt lat="47.15629" lon="6.78089">
        <ele>973.766968</ele>
        <time>2019-04-22T13:35:43Z</time>
      </trkpt>
      <trkpt lat="47.15582" lon="6.77928">
        <ele>967.3</ele>
        <time>2019-04-22T13:35:51Z</time>
      </trkpt>
      <trkpt lat="47.15651" lon="6.77895">
        <ele>963.3</ele>
        <time>2019-04-22T13:36:28Z</time>
      </trkpt>
      <trkpt lat="47.15661" lon="6.77819">
        <ele>960.2</ele>
        <time>2019-04-22T13:37:31Z</time>
      </trkpt>
      <trkpt lat="47.15671" lon="6.77753">
        <ele>957.7</ele>
        <time>2019-04-22T13:38:02Z</time>
      </trkpt>
      <trkpt lat="47.15687" lon="6.77667">
        <ele>954.7</ele>
        <time>2019-04-22T13:38:34Z</time>
      </trkpt>
      <trkpt lat="47.15696" lon="6.77601">
        <ele>955.7</ele>
        <time>2019-04-22T13:42:22Z</time>
      </trkpt>
      <trkpt lat="47.15708" lon="6.77561">
        <ele>958.3</ele>
        <time>2019-04-22T13:49:10Z</time>
      </trkpt>
      <trkpt lat="47.15744" lon="6.77539">
        <ele>948.877991</ele>
        <time>2019-04-22T13:59:28Z</time>
      </trkpt>
      <trkpt lat="47.1579" lon="6.77449">
        <ele>957</ele>
        <time>2019-04-22T14:00:27Z</time>
      </trkpt>
      <trkpt lat="47.15786" lon="6.77422">
        <ele>944.337708</ele>
        <time>2019-04-22T14:00:49Z</time>
      </trkpt>
      <trkpt lat="47.15764" lon="6.77345">
        <ele>943.992493</ele>
        <time>2019-04-22T14:00:58Z</time>
      </trkpt>
      <trkpt lat="47.15762" lon="6.77287">
        <ele>942.549988</ele>
        <time>2019-04-22T14:01:04Z</time>
      </trkpt>
      <trkpt lat="47.15743" lon="6.7721">
        <ele>941.244995</ele>
        <time>2019-04-22T14:01:07Z</time>
      </trkpt>
      <trkpt lat="47.15718" lon="6.77123">
        <ele>938.67981</ele>
        <time>2019-04-22T14:01:14Z</time>
      </trkpt>
      <trkpt lat="47.15696" lon="6.77015">
        <ele>938.7</ele>
        <time>2019-04-22T14:01:35Z</time>
      </trkpt>
      <trkpt lat="47.15697" lon="6.76974">
        <ele>929.85498</ele>
        <time>2019-04-22T14:02:01Z</time>
      </trkpt>
      <trkpt lat="47.15699" lon="6.76933">
        <ele>926.154968</ele>
        <time>2019-04-22T14:02:28Z</time>
      </trkpt>
      <trkpt lat="47.15693" lon="6.76876">
        <ele>921.79541</ele>
        <time>2019-04-22T14:02:53Z</time>
      </trkpt>
      <trkpt lat="47.15682" lon="6.76834">
        <ele>918.564697</ele>
        <time>2019-04-22T14:03:13Z</time>
      </trkpt>
      <trkpt lat="47.15672" lon="6.76746">
        <ele>910.348511</ele>
        <time>2019-04-22T14:03:49Z</time>
      </trkpt>
      <trkpt lat="47.15669" lon="6.76713">
        <ele>909.160889</ele>
        <time>2019-04-22T14:04:04Z</time>
      </trkpt>
      <trkpt lat="47.15675" lon="6.76653">
        <ele>906.947021</ele>
        <time>2019-04-22T14:04:15Z</time>
      </trkpt>
      <trkpt lat="47.15674" lon="6.76564">
        <ele>904.389221</ele>
        <time>2019-04-22T14:04:23Z</time>
      </trkpt>
      <trkpt lat="47.15678" lon="6.76481">
        <ele>901.830627</ele>
        <time>2019-04-22T14:04:35Z</time>
      </trkpt>
      <trkpt lat="47.15693" lon="6.76304">
        <ele>895.385559</ele>
        <time>2019-04-22T14:04:43Z</time>
      </trkpt>
      <trkpt lat="47.1572" lon="6.76114">
        <ele>911.3</ele>
        <time>2019-04-22T14:06:59Z</time>
      </trkpt>
      <trkpt lat="47.15678" lon="6.76064">
        <ele>912.4</ele>
        <time>2019-04-22T14:07:25Z</time>
      </trkpt>
      <trkpt lat="47.15647" lon="6.76002">
        <ele>914.4</ele>
        <time>2019-04-22T14:07:34Z</time>
      </trkpt>
      <trkpt lat="47.15628" lon="6.75958">
        <ele>890.762817</ele>
        <time>2019-04-22T14:08:00Z</time>
      </trkpt>
      <trkpt lat="47.15589" lon="6.75896">
        <ele>891.538208</ele>
        <time>2019-04-22T14:09:23Z</time>
      </trkpt>
      <trkpt lat="47.15547" lon="6.75824">
        <ele>891.710022</ele>
        <time>2019-04-22T14:10:11Z</time>
      </trkpt>
      <trkpt lat="47.15506" lon="6.75742">
        <ele>914.8</ele>
        <time>2019-04-22T14:10:52Z</time>
      </trkpt>
      <trkpt lat="47.15469" lon="6.75678">
        <ele>915.3</ele>
        <time>2019-04-22T14:11:30Z</time>
      </trkpt>
      <trkpt lat="47.15404" lon="6.75549">
        <ele>917.1</ele>
        <time>2019-04-22T14:12:30Z</time>
      </trkpt>
      <trkpt lat="47.15368" lon="6.75474">
        <ele>897.397522</ele>
        <time>2019-04-22T14:16:32Z</time>
      </trkpt>
      <trkpt lat="47.15346" lon="6.75398">
        <ele>896.842529</ele>
        <time>2019-04-22T14:17:03Z</time>
      </trkpt>
      <trkpt lat="47.15331" lon="6.75321">
        <ele>894.419678</ele>
        <time>2019-04-22T14:17:17Z</time>
      </trkpt>
      <trkpt lat="47.15313" lon="6.75207">
        <ele>891.184998</ele>
        <time>2019-04-22T14:17:45Z</time>
      </trkpt>
      <trkpt lat="47.15284" lon="6.75052">
        <ele>888.484985</ele>
        <time>2019-04-22T14:18:04Z</time>
      </trkpt>
      <trkpt lat="47.15275" lon="6.74994">
        <ele>887.856262</ele>
        <time>2019-04-22T14:18:06Z</time>
      </trkpt>
      <trkpt lat="47.15261" lon="6.74945">
        <ele>887.4</ele>
        <time>2019-04-22T14:18:40Z</time>
      </trkpt>
      <trkpt lat="47.15284" lon="6.74876">
        <ele>886.2</ele>
        <time>2019-04-22T14:19:53Z</time>
      </trkpt>
      <trkpt lat="47.15315" lon="6.74805">
        <ele>886.2</ele>
        <time>2019-04-22T14:20:08Z</time>
      </trkpt>
      <trkpt lat="47.15343" lon="6.74681">
        <ele>885.7</ele>
        <time>2019-04-22T14:20:18Z</time>
      </trkpt>
      <trkpt lat="47.15356" lon="6.74545">
        <ele>882.2</ele>
        <time>2019-04-22T14:20:21Z</time>
      </trkpt>
      <trkpt lat="47.15393" lon="6.74448">
        <ele>882.3</ele>
        <time>2019-04-22T14:20:46Z</time>
      </trkpt>
      <trkpt lat="47.15438" lon="6.74386">
        <ele>881</ele>
        <time>2019-04-22T14:20:56Z</time>
      </trkpt>
      <trkpt lat="47.15508" lon="6.74352">
        <ele>878.1</ele>
        <time>2019-04-22T14:20:58Z</time>
      </trkpt>
      <trkpt lat="47.15589" lon="6.74329">
        <ele>878.7</ele>
        <time>2019-04-22T14:21:05Z</time>
      </trkpt>
      <trkpt lat="47.15636" lon="6.74348">
        <ele>877.5</ele>
        <time>2019-04-22T14:21:13Z</time>
      </trkpt>
      <trkpt lat="47.15709" lon="6.74367">
        <ele>878.7</ele>
        <time>2019-04-22T14:21:16Z</time>
      </trkpt>
      <trkpt lat="47.1574" lon="6.74382">
        <ele>878.7</ele>
        <time>2019-04-22T14:21:35Z</time>
      </trkpt>
      <trkpt lat="47.15766" lon="6.7443">
        <ele>878.7</ele>
        <time>2019-04-22T14:21:48Z</time>
      </trkpt>
      <trkpt lat="47.15796" lon="6.7451">
        <ele>878.3</ele>
        <time>2019-04-22T14:22:49Z</time>
      </trkpt>
      <trkpt lat="47.15818" lon="6.74585">
        <ele>878.2</ele>
        <time>2019-04-22T14:27:58Z</time>
      </trkpt>
      <trkpt lat="47.15846" lon="6.74635">
        <ele>879.6</ele>
        <time>2019-04-22T14:28:39Z</time>
      </trkpt>
      <trkpt lat="47.15879" lon="6.74691">
        <ele>878.3</ele>
        <time>2019-04-22T14:28:54Z</time>
      </trkpt>
      <trkpt lat="47.15918" lon="6.74755">
        <ele>877.1</ele>
        <time>2019-04-22T14:30:44Z</time>
      </trkpt>
      <trkpt lat="47.15959" lon="6.74801">
        <ele>877.1</ele>
        <time>2019-04-22T14:33:06Z</time>
      </trkpt>
      <trkpt lat="47.1601" lon="6.74855">
        <ele>876.731934</ele>
        <time>2019-04-22T14:41:40Z</time>
      </trkpt>
      <trkpt lat="47.16031" lon="6.74863">
        <ele>878.930664</ele>
        <time>2019-04-22T14:42:14Z</time>
      </trkpt>
      <trkpt lat="47.16055" lon="6.74791">
        <ele>881.979675</ele>
        <time>2019-04-22T14:42:22Z</time>
      </trkpt>
      <trkpt lat="47.16056" lon="6.74711">
        <ele>884.605164</ele>
        <time>2019-04-22T14:44:11Z</time>
      </trkpt>
      <trkpt lat="47.16051" lon="6.74632">
        <ele>885.414734</ele>
        <time>2019-04-22T14:44:24Z</time>
      </trkpt>
      <trkpt lat="47.16046" lon="6.7451">
        <ele>885.309998</ele>
        <time>2019-04-22T14:45:30Z</time>
      </trkpt>
      <trkpt lat="47.16041" lon="6.74344">
        <ele>884.477966</ele>
        <time>2019-04-22T14:45:37Z</time>
      </trkpt>
      <trkpt lat="47.16031" lon="6.73942">
        <ele>887.869141</ele>
        <time>2019-04-22T14:45:41Z</time>
      </trkpt>
      <trkpt lat="47.16034" lon="6.73859">
        <ele>890.034973</ele>
        <time>2019-04-22T14:45:58Z</time>
      </trkpt>
      <trkpt lat="47.16027" lon="6.73781">
        <ele>888.8</ele>
        <time>2019-04-22T14:46:24Z</time>
      </trkpt>
      <trkpt lat="47.16004" lon="6.73708">
        <ele>888.3</ele>
        <time>2019-04-22T14:46:42Z</time>
      </trkpt>
      <trkpt lat="47.15987" lon="6.73647">
        <ele>887.2</ele>
        <time>2019-04-22T14:47:03Z</time>
      </trkpt>
      <trkpt lat="47.1597" lon="6.7357">
        <ele>888.566223</ele>
        <time>2019-04-22T14:55:00Z</time>
      </trkpt>
      <trkpt lat="47.15955" lon="6.73503">
        <ele>887.223389</ele>
        <time>2019-04-22T14:56:42Z</time>
      </trkpt>
      <trkpt lat="47.15941" lon="6.73395">
        <ele>884.2</ele>
        <time>2019-04-22T14:58:16Z</time>
      </trkpt>
      <trkpt lat="47.15944" lon="6.73373">
        <ele>884.625</ele>
        <time>2019-04-22T14:58:52Z</time>
      </trkpt>
      <trkpt lat="47.15949" lon="6.73361">
        <ele>884.72998</ele>
        <time>2019-04-22T14:59:14Z</time>
      </trkpt>
      <trkpt lat="47.15995" lon="6.73318">
        <ele>884.72998</ele>
        <time>2019-04-22T14:59:39Z</time>
      </trkpt>
      <trkpt lat="47.16032" lon="6.7326">
        <ele>883.525024</ele>
        <time>2019-04-22T15:00:24Z</time>
      </trkpt>
      <trkpt lat="47.16059" lon="6.73198">
        <ele>882.740112</ele>
        <time>2019-04-22T15:00:39Z</time>
      </trkpt>
      <trkpt lat="47.16076" lon="6.73158">
        <ele>881.249146</ele>
        <time>2019-04-22T15:02:13Z</time>
      </trkpt>
      <trkpt lat="47.16139" lon="6.73023">
        <ele>879.154053</ele>
        <time>2019-04-22T15:03:00Z</time>
      </trkpt>
      <trkpt lat="47.16171" lon="6.72951">
        <ele>877.807495</ele>
        <time>2019-04-22T15:07:15Z</time>
      </trkpt>
      <trkpt lat="47.16211" lon="6.72899">
        <ele>875.577515</ele>
        <time>2019-04-22T15:07:30Z</time>
      </trkpt>
      <trkpt lat="47.16224" lon="6.72903">
        <ele>874.972534</ele>
        <time>2019-04-22T15:07:44Z</time>
      </trkpt>
      <trkpt lat="47.16248" lon="6.72862">
        <ele>877.1</ele>
        <time>2019-04-22T15:07:56Z</time>
      </trkpt>
      <trkpt lat="47.16298" lon="6.7289">
        <ele>874.951233</ele>
        <time>2019-04-22T15:08:07Z</time>
      </trkpt>
      <trkpt lat="47.16333" lon="6.72897">
        <ele>875.7</ele>
        <time>2019-04-22T15:08:21Z</time>
      </trkpt>
      <trkpt lat="47.16366" lon="6.72903">
        <ele>874.3</ele>
        <time>2019-04-22T15:08:39Z</time>
      </trkpt>
      <trkpt lat="47.16395" lon="6.72862">
        <ele>874.794983</ele>
        <time>2019-04-22T15:09:00Z</time>
      </trkpt>
      <trkpt lat="47.16438" lon="6.72797">
        <ele>873.287476</ele>
        <time>2019-04-22T15:09:18Z</time>
      </trkpt>
      <trkpt lat="47.1647" lon="6.72742">
        <ele>872.42627</ele>
        <time>2019-04-22T15:09:30Z</time>
      </trkpt>
      <trkpt lat="47.16477" lon="6.72722">
        <ele>872.101257</ele>
        <time>2019-04-22T15:09:44Z</time>
      </trkpt>
      <trkpt lat="47.16486" lon="6.72714">
        <ele>871.882507</ele>
        <time>2019-04-22T15:09:57Z</time>
      </trkpt>
      <trkpt lat="47.16495" lon="6.72711">
        <ele>871.626282</ele>
        <time>2019-04-22T15:10:43Z</time>
      </trkpt>
      <trkpt lat="47.16503" lon="6.72705">
        <ele>871.362488</ele>
        <time>2019-04-22T15:10:54Z</time>
      </trkpt>
      <trkpt lat="47.1651" lon="6.72698">
        <ele>871.09375</ele>
        <time>2019-04-22T15:10:57Z</time>
      </trkpt>
      <trkpt lat="47.16544" lon="6.72633">
        <ele>870</ele>
        <time>2019-04-22T15:11:07Z</time>
      </trkpt>
      <trkpt lat="47.16619" lon="6.72507">
        <ele>870.361572</ele>
        <time>2019-04-22T15:11:21Z</time>
      </trkpt>
      <trkpt lat="47.16646" lon="6.72438">
        <ele>871.794983</ele>
        <time>2019-04-22T15:11:35Z</time>
      </trkpt>
      <trkpt lat="47.16661" lon="6.72358">
        <ele>874.252502</ele>
        <time>2019-04-22T15:11:39Z</time>
      </trkpt>
      <trkpt lat="47.16673" lon="6.72313">
        <ele>873.1</ele>
        <time>2019-04-22T15:11:52Z</time>
      </trkpt>
      <trkpt lat="47.16695" lon="6.723">
        <ele>875.722473</ele>
        <time>2019-04-22T15:12:16Z</time>
      </trkpt>
      <trkpt lat="47.16747" lon="6.7227">
        <ele>875.47998</ele>
        <time>2019-04-22T15:12:18Z</time>
      </trkpt>
      <trkpt lat="47.16802" lon="6.72249">
        <ele>873.898926</ele>
        <time>2019-04-22T15:12:26Z</time>
      </trkpt>
      <trkpt lat="47.16848" lon="6.72205">
        <ele>873.424255</ele>
        <time>2019-04-22T15:12:28Z</time>
      </trkpt>
      <trkpt lat="47.16878" lon="6.7218">
        <ele>873.242493</ele>
        <time>2019-04-22T15:12:33Z</time>
      </trkpt>
      <trkpt lat="47.16905" lon="6.72164">
        <ele>872.945007</ele>
        <time>2019-04-22T15:12:39Z</time>
      </trkpt>
      <trkpt lat="47.16959" lon="6.72148">
        <ele>873.369995</ele>
        <time>2019-04-22T15:12:45Z</time>
      </trkpt>
      <trkpt lat="47.17016" lon="6.72144">
        <ele>873.109375</ele>
        <time>2019-04-22T15:12:52Z</time>
      </trkpt>
      <trkpt lat="47.17073" lon="6.72137">
        <ele>871.709167</ele>
        <time>2019-04-22T15:12:59Z</time>
      </trkpt>
      <trkpt lat="47.17127" lon="6.72123">
        <ele>869.221252</ele>
        <time>2019-04-22T15:13:06Z</time>
      </trkpt>
      <trkpt lat="47.17181" lon="6.72111">
        <ele>865.8</ele>
        <time>2019-04-22T15:13:17Z</time>
      </trkpt>
      <trkpt lat="47.17238" lon="6.72105">
        <ele>866.2</ele>
        <time>2019-04-22T15:13:22Z</time>
      </trkpt>
      <trkpt lat="47.17296" lon="6.72103">
        <ele>867.8</ele>
        <time>2019-04-22T15:13:24Z</time>
      </trkpt>
      <trkpt lat="47.17409" lon="6.72127">
        <ele>867.5</ele>
        <time>2019-04-22T15:13:30Z</time>
      </trkpt>
      <trkpt lat="47.17454" lon="6.72119">
        <ele>867.663513</ele>
        <time>2019-04-22T15:13:34Z</time>
      </trkpt>
      <trkpt lat="47.17496" lon="6.72113">
        <ele>865.87323</ele>
        <time>2019-04-22T15:14:02Z</time>
      </trkpt>
      <trkpt lat="47.1751" lon="6.72113">
        <ele>865.390747</ele>
        <time>2019-04-22T15:14:11Z</time>
      </trkpt>
      <trkpt lat="47.17562" lon="6.721">
        <ele>863.6</ele>
        <time>2019-04-22T15:14:23Z</time>
      </trkpt>
      <trkpt lat="47.17585" lon="6.72094">
        <ele>865.5</ele>
        <time>2019-04-22T15:14:44Z</time>
      </trkpt>
      <trkpt lat="47.17608" lon="6.72098">
        <ele>868.2</ele>
        <time>2019-04-22T15:14:56Z</time>
      </trkpt>
      <trkpt lat="47.1767" lon="6.72088">
        <ele>860.028625</ele>
        <time>2019-04-22T15:15:10Z</time>
      </trkpt>
      <trkpt lat="47.1773" lon="6.72066">
        <ele>877.9</ele>
        <time>2019-04-22T15:15:14Z</time>
      </trkpt>
      <trkpt lat="47.17719" lon="6.72035">
        <ele>876.2</ele>
        <time>2019-04-22T15:15:32Z</time>
      </trkpt>
      <trkpt lat="47.17735" lon="6.72036">
        <ele>877</ele>
        <time>2019-04-22T15:16:13Z</time>
      </trkpt>
      <trkpt lat="47.17767" lon="6.72007">
        <ele>879.1</ele>
        <time>2019-04-22T15:16:37Z</time>
      </trkpt>
      <trkpt lat="47.17801" lon="6.72005">
        <ele>861.821106</ele>
        <time>2019-04-22T15:17:07Z</time>
      </trkpt>
      <trkpt lat="47.17826" lon="6.72">
        <ele>876.1</ele>
        <time>2019-04-22T15:19:26Z</time>
      </trkpt>
      <trkpt lat="47.17845" lon="6.72032">
        <ele>876.1</ele>
        <time>2019-04-22T15:19:54Z</time>
      </trkpt>
      <trkpt lat="47.17874" lon="6.72044">
        <ele>875.6</ele>
        <time>2019-04-22T15:20:34Z</time>
      </trkpt>
      <trkpt lat="47.17898" lon="6.72037">
        <ele>874.7</ele>
        <time>2019-04-22T15:20:51Z</time>
      </trkpt>
      <trkpt lat="47.17927" lon="6.71988">
        <ele>872.5</ele>
        <time>2019-04-22T15:21:11Z</time>
      </trkpt>
      <trkpt lat="47.17955" lon="6.71935">
        <ele>869.605957</ele>
        <time>2019-04-22T15:22:01Z</time>
      </trkpt>
      <trkpt lat="47.17968" lon="6.71906">
        <ele>869.597534</ele>
        <time>2019-04-22T15:22:28Z</time>
      </trkpt>
      <trkpt lat="47.17976" lon="6.71892">
        <ele>869.206238</ele>
        <time>2019-04-22T15:22:51Z</time>
      </trkpt>
      <trkpt lat="47.17998" lon="6.7187">
        <ele>868.388733</ele>
        <time>2019-04-22T15:23:08Z</time>
      </trkpt>
      <trkpt lat="47.18012" lon="6.71865">
        <ele>870.3</ele>
        <time>2019-04-22T15:23:25Z</time>
      </trkpt>
      <trkpt lat="47.18043" lon="6.71885">
        <ele>869.7</ele>
        <time>2019-04-22T15:23:43Z</time>
      </trkpt>
      <trkpt lat="47.18052" lon="6.71904">
        <ele>869.8</ele>
        <time>2019-04-22T15:24:01Z</time>
      </trkpt>
      <trkpt lat="47.18084" lon="6.71968">
        <ele>869.1</ele>
        <time>2019-04-22T15:24:16Z</time>
      </trkpt>
      <trkpt lat="47.18098" lon="6.72007">
        <ele>870</ele>
        <time>2019-04-22T15:24:32Z</time>
      </trkpt>
      <trkpt lat="47.18107" lon="6.72014">
        <ele>870</ele>
        <time>2019-04-22T15:24:48Z</time>
      </trkpt>
      <trkpt lat="47.18123" lon="6.72008">
        <ele>869.8</ele>
        <time>2019-04-22T15:25:02Z</time>
      </trkpt>
      <trkpt lat="47.18135" lon="6.71988">
        <ele>868.7</ele>
        <time>2019-04-22T15:25:17Z</time>
      </trkpt>
      <trkpt lat="47.1815" lon="6.71967">
        <ele>868.3</ele>
        <time>2019-04-22T15:25:51Z</time>
      </trkpt>
      <trkpt lat="47.18176" lon="6.71949">
        <ele>868.1</ele>
        <time>2019-04-22T15:26:13Z</time>
      </trkpt>
      <trkpt lat="47.18202" lon="6.71954">
        <ele>862.103455</ele>
        <time>2019-04-22T15:26:35Z</time>
      </trkpt>
      <trkpt lat="47.18224" lon="6.71945">
        <ele>869.5</ele>
        <time>2019-04-22T15:32:23Z</time>
      </trkpt>
      <trkpt lat="47.18259" lon="6.71875">
        <ele>868.5</ele>
        <time>2019-04-22T15:33:47Z</time>
      </trkpt>
      <trkpt lat="47.18276" lon="6.71796">
        <ele>865.6</ele>
        <time>2019-04-22T15:34:06Z</time>
      </trkpt>
      <trkpt lat="47.18267" lon="6.71779">
        <ele>865.6</ele>
        <time>2019-04-22T15:34:26Z</time>
      </trkpt>
      <trkpt lat="47.18267" lon="6.71748">
        <ele>864.4</ele>
        <time>2019-04-22T15:34:49Z</time>
      </trkpt>
      <trkpt lat="47.18273" lon="6.71736">
        <ele>863.7</ele>
        <time>2019-04-22T15:36:16Z</time>
      </trkpt>
      <trkpt lat="47.18291" lon="6.71729">
        <ele>863.1</ele>
        <time>2019-04-22T15:36:49Z</time>
      </trkpt>
      <trkpt lat="47.18318" lon="6.71735">
        <ele>862.767517</ele>
        <time>2019-04-22T15:37:52Z</time>
      </trkpt>
      <trkpt lat="47.18349" lon="6.7175">
        <ele>862.55127</ele>
        <time>2019-04-22T15:38:41Z</time>
      </trkpt>
      <trkpt lat="47.18362" lon="6.71753">
        <ele>862.282166</ele>
        <time>2019-04-22T15:39:07Z</time>
      </trkpt>
      <trkpt lat="47.18377" lon="6.7175">
        <ele>861.54248</ele>
        <time>2019-04-22T15:39:32Z</time>
      </trkpt>
      <trkpt lat="47.18415" lon="6.71732">
        <ele>859.605835</ele>
        <time>2019-04-22T15:40:25Z</time>
      </trkpt>
      <trkpt lat="47.18426" lon="6.71724">
        <ele>855.3</ele>
        <time>2019-04-22T15:40:49Z</time>
      </trkpt>
      <trkpt lat="47.18464" lon="6.71812">
        <ele>855.1</ele>
        <time>2019-04-22T15:42:24Z</time>
      </trkpt>
      <trkpt lat="47.18521" lon="6.71943">
        <ele>854.7</ele>
        <time>2019-04-22T15:44:17Z</time>
      </trkpt>
      <trkpt lat="47.18547" lon="6.71972">
        <ele>855.2</ele>
        <time>2019-04-22T15:45:33Z</time>
      </trkpt>
      <trkpt lat="47.18602" lon="6.71982">
        <ele>856.2</ele>
        <time>2019-04-22T15:45:50Z</time>
      </trkpt>
      <trkpt lat="47.18641" lon="6.72012">
        <ele>857</ele>
        <time>2019-04-22T15:46:06Z</time>
      </trkpt>
      <trkpt lat="47.18663" lon="6.72">
        <ele>856.2</ele>
        <time>2019-04-22T15:46:11Z</time>
      </trkpt>
      <trkpt lat="47.18679" lon="6.72">
        <ele>856.8</ele>
        <time>2019-04-22T15:46:20Z</time>
      </trkpt>
      <trkpt lat="47.18704" lon="6.71955">
        <ele>856.2</ele>
        <time>2019-04-22T15:46:54Z</time>
      </trkpt>
      <trkpt lat="47.18755" lon="6.71981">
        <ele>858.3</ele>
        <time>2019-04-22T15:47:02Z</time>
      </trkpt>
      <trkpt lat="47.18796" lon="6.72018">
        <ele>859.2</ele>
        <time>2019-04-22T15:47:09Z</time>
      </trkpt>
      <trkpt lat="47.18854" lon="6.72039">
        <ele>863.3</ele>
        <time>2019-04-22T15:47:16Z</time>
      </trkpt>
      <trkpt lat="47.1891" lon="6.72063">
        <ele>867.589539</ele>
        <time>2019-04-22T15:47:18Z</time>
      </trkpt>
      <trkpt lat="47.18958" lon="6.72074">
        <ele>873.1</ele>
        <time>2019-04-22T15:47:20Z</time>
      </trkpt>
      <trkpt lat="47.18987" lon="6.72087">
        <ele>875.4</ele>
        <time>2019-04-22T15:47:22Z</time>
      </trkpt>
      <trkpt lat="47.19022" lon="6.72125">
        <ele>879.7</ele>
        <time>2019-04-22T15:47:28Z</time>
      </trkpt>
      <trkpt lat="47.19039" lon="6.72158">
        <ele>880</ele>
        <time>2019-04-22T15:47:32Z</time>
      </trkpt>
      <trkpt lat="47.19048" lon="6.72248">
        <ele>881</ele>
        <time>2019-04-22T15:47:34Z</time>
      </trkpt>
      <trkpt lat="47.19084" lon="6.72342">
        <ele>889.1</ele>
        <time>2019-04-22T15:47:36Z</time>
      </trkpt>
      <trkpt lat="47.19105" lon="6.72389">
        <ele>892.3</ele>
        <time>2019-04-22T15:47:49Z</time>
      </trkpt>
      <trkpt lat="47.19125" lon="6.72382">
        <ele>894.6</ele>
        <time>2019-04-22T15:48:35Z</time>
      </trkpt>
      <trkpt lat="47.19143" lon="6.72335">
        <ele>896.4</ele>
        <time>2019-04-22T15:49:00Z</time>
      </trkpt>
      <trkpt lat="47.19162" lon="6.72309">
        <ele>894.8</ele>
        <time>2019-04-22T15:49:07Z</time>
      </trkpt>
      <trkpt lat="47.19185" lon="6.72286">
        <ele>900.8</ele>
        <time>2019-04-22T15:49:09Z</time>
      </trkpt>
      <trkpt lat="47.19206" lon="6.72264">
        <ele>901.8</ele>
        <time>2019-04-22T15:49:11Z</time>
      </trkpt>
      <trkpt lat="47.19217" lon="6.72237">
        <ele>901.9</ele>
        <time>2019-04-22T15:49:19Z</time>
      </trkpt>
      <trkpt lat="47.19223" lon="6.72198">
        <ele>902.1</ele>
        <time>2019-04-22T15:49:20Z</time>
      </trkpt>
      <trkpt lat="47.19233" lon="6.72171">
        <ele>903.9</ele>
        <time>2019-04-22T15:49:27Z</time>
      </trkpt>
      <trkpt lat="47.19263" lon="6.72156">
        <ele>908.1</ele>
        <time>2019-04-22T15:49:40Z</time>
      </trkpt>
      <trkpt lat="47.19302" lon="6.72154">
        <ele>910.5</ele>
        <time>2019-04-22T15:49:55Z</time>
      </trkpt>
      <trkpt lat="47.19311" lon="6.72163">
        <ele>911.5</ele>
        <time>2019-04-22T15:50:04Z</time>
      </trkpt>
      <trkpt lat="47.19318" lon="6.72173">
        <ele>913.6</ele>
        <time>2019-04-22T15:50:32Z</time>
      </trkpt>
      <trkpt lat="47.19314" lon="6.72251">
        <ele>915.5</ele>
        <time>2019-04-22T15:51:02Z</time>
      </trkpt>
      <trkpt lat="47.19334" lon="6.72306">
        <ele>918.317505</ele>
        <time>2019-04-22T15:51:13Z</time>
      </trkpt>
      <trkpt lat="47.19358" lon="6.72343">
        <ele>918.887695</ele>
        <time>2019-04-22T15:51:26Z</time>
      </trkpt>
      <trkpt lat="47.19362" lon="6.72355">
        <ele>918.955688</ele>
        <time>2019-04-22T15:51:38Z</time>
      </trkpt>
      <trkpt lat="47.19359" lon="6.7237">
        <ele>918.3</ele>
        <time>2019-04-22T15:51:51Z</time>
      </trkpt>
      <trkpt lat="47.19344" lon="6.72401">
        <ele>918.1</ele>
        <time>2019-04-22T15:52:39Z</time>
      </trkpt>
      <trkpt lat="47.19323" lon="6.72423">
        <ele>919.8</ele>
        <time>2019-04-22T15:53:41Z</time>
      </trkpt>
      <trkpt lat="47.19295" lon="6.72424">
        <ele>920.8</ele>
        <time>2019-04-22T15:54:01Z</time>
      </trkpt>
      <trkpt lat="47.19287" lon="6.72444">
        <ele>921.5</ele>
        <time>2019-04-22T15:54:25Z</time>
      </trkpt>
      <trkpt lat="47.19287" lon="6.72486">
        <ele>923.3</ele>
        <time>2019-04-22T15:55:35Z</time>
      </trkpt>
      <trkpt lat="47.19303" lon="6.72537">
        <ele>927.2</ele>
        <time>2019-04-22T15:55:48Z</time>
      </trkpt>
      <trkpt lat="47.19329" lon="6.72618">
        <ele>927.7</ele>
        <time>2019-04-22T15:56:18Z</time>
      </trkpt>
      <trkpt lat="47.19344" lon="6.72649">
        <ele>933.9</ele>
        <time>2019-04-22T15:56:50Z</time>
      </trkpt>
      <trkpt lat="47.19361" lon="6.7268">
        <ele>933.3</ele>
        <time>2019-04-22T15:57:19Z</time>
      </trkpt>
      <trkpt lat="47.19375" lon="6.72707">
        <ele>933.6</ele>
        <time>2019-04-22T15:57:44Z</time>
      </trkpt>
      <trkpt lat="47.19403" lon="6.7274">
        <ele>935.1</ele>
        <time>2019-04-22T15:58:08Z</time>
      </trkpt>
      <trkpt lat="47.19419" lon="6.72757">
        <ele>935.680786</ele>
        <time>2019-04-22T15:58:19Z</time>
      </trkpt>
      <trkpt lat="47.19444" lon="6.72787">
        <ele>937.6</ele>
      </trkpt>
      <trkpt lat="47.19489" lon="6.72833">
        <ele>941.8</ele>
      </trkpt>
      <trkpt lat="47.19504" lon="6.72859">
        <ele>941.7</ele>
      </trkpt>
      <trkpt lat="47.19513" lon="6.72864">
        <ele>941.3</ele>
      </trkpt>
      <trkpt lat="47.19553" lon="6.72837">
        <ele>940</ele>
      </trkpt>
      <trkpt lat="47.19579" lon="6.72854">
        <ele>939.3</ele>
      </trkpt>
      <trkpt lat="47.19621" lon="6.72889">
        <ele>933.6</ele>
      </trkpt>
      <trkpt lat="47.1967" lon="6.72932">
        <ele>933.7</ele>
      </trkpt>
      <trkpt lat="47.19712" lon="6.72987">
        <ele>949.139954</ele>
      </trkpt>
      <trkpt lat="47.19768" lon="6.73036">
        <ele>934.7</ele>
      </trkpt>
      <trkpt lat="47.19781" lon="6.73068">
        <ele>936.5</ele>
      </trkpt>
      <trkpt lat="47.19803" lon="6.73079">
        <ele>946.649963</ele>
      </trkpt>
      <trkpt lat="47.1981" lon="6.73074">
        <ele>935</ele>
      </trkpt>
      <trkpt lat="47.19802" lon="6.73048">
        <ele>933</ele>
      </trkpt>
      <trkpt lat="47.19801" lon="6.73012">
        <ele>929.2</ele>
      </trkpt>
      <trkpt lat="47.19858" lon="6.73053">
        <ele>923.8</ele>
      </trkpt>
      <trkpt lat="47.19902" lon="6.73054">
        <ele>921.7</ele>
      </trkpt>
      <trkpt lat="47.19913" lon="6.73024">
        <ele>916</ele>
      </trkpt>
      <trkpt lat="47.19951" lon="6.72965">
        <ele>898.830505</ele>
      </trkpt>
      <trkpt lat="47.1999" lon="6.72896">
        <ele>897.5</ele>
      </trkpt>
      <trkpt lat="47.20008" lon="6.72876">
        <ele>895.3</ele>
      </trkpt>
      <trkpt lat="47.20017" lon="6.72849">
        <ele>893.2</ele>
      </trkpt>
      <trkpt lat="47.20021" lon="6.72826">
        <ele>888</ele>
      </trkpt>
      <trkpt lat="47.20011" lon="6.72787">
        <ele>886.2</ele>
      </trkpt>
      <trkpt lat="47.19989" lon="6.72775">
        <ele>887.1</ele>
      </trkpt>
      <trkpt lat="47.19984" lon="6.72757">
        <ele>886.4</ele>
      </trkpt>
      <trkpt lat="47.1998" lon="6.72725">
        <ele>878.612854</ele>
      </trkpt>
      <trkpt lat="47.19987" lon="6.72712">
        <ele>878.320496</ele>
      </trkpt>
      <trkpt lat="47.19994" lon="6.72697">
        <ele>882.1</ele>
      </trkpt>
      <trkpt lat="47.20007" lon="6.72674">
        <ele>881.3</ele>
      </trkpt>
      <trkpt lat="47.19999" lon="6.72659">
        <ele>880.4</ele>
      </trkpt>
      <trkpt lat="47.19981" lon="6.72652">
        <ele>879.5</ele>
      </trkpt>
      <trkpt lat="47.19992" lon="6.72618">
        <ele>878.9</ele>
      </trkpt>
      <trkpt lat="47.20031" lon="6.72551">
        <ele>881.5</ele>
      </trkpt>
      <trkpt lat="47.2006" lon="6.72464">
        <ele>889.8</ele>
      </trkpt>
      <trkpt lat="47.20109" lon="6.72487">
        <ele>895.2</ele>
      </trkpt>
      <trkpt lat="47.20159" lon="6.72525">
        <ele>892.1</ele>
      </trkpt>
      <trkpt lat="47.20219" lon="6.72556">
        <ele>894.4</ele>
      </trkpt>
      <trkpt lat="47.20277" lon="6.72576">
        <ele>896.7</ele>
      </trkpt>
      <trkpt lat="47.20333" lon="6.72605">
        <ele>894.8</ele>
      </trkpt>
      <trkpt lat="47.20389" lon="6.72639">
        <ele>893</ele>
      </trkpt>
      <trkpt lat="47.20431" lon="6.72658">
        <ele>878.373718</ele>
      </trkpt>
      <trkpt lat="47.20483" lon="6.72708">
        <ele>892.3</ele>
      </trkpt>
      <trkpt lat="47.20518" lon="6.72737">
        <ele>875.432617</ele>
      </trkpt>
      <trkpt lat="47.20548" lon="6.72769">
        <ele>873.517883</ele>
      </trkpt>
      <trkpt lat="47.206" lon="6.72804">
        <ele>875.440308</ele>
      </trkpt>
      <trkpt lat="47.2065" lon="6.72847">
        <ele>874.64624</ele>
      </trkpt>
      <trkpt lat="47.20669" lon="6.72867">
        <ele>874.674194</ele>
      </trkpt>
      <trkpt lat="47.207" lon="6.72935">
        <ele>878.330017</ele>
      </trkpt>
      <trkpt lat="47.20729" lon="6.73069">
        <ele>880.498779</ele>
      </trkpt>
      <trkpt lat="47.20748" lon="6.73145">
        <ele>881.370239</ele>
      </trkpt>
      <trkpt lat="47.20765" lon="6.73225">
        <ele>879.662842</ele>
      </trkpt>
      <trkpt lat="47.20823" lon="6.734">
        <ele>878.809021</ele>
      </trkpt>
      <trkpt lat="47.20846" lon="6.73441">
        <ele>877.022217</ele>
      </trkpt>
      <trkpt lat="47.20859" lon="6.73466">
        <ele>881.4</ele>
      </trkpt>
      <trkpt lat="47.20822" lon="6.73463">
        <ele>868.870911</ele>
      </trkpt>
      <trkpt lat="47.20763" lon="6.73484">
        <ele>876.4</ele>
      </trkpt>
      <trkpt lat="47.20703" lon="6.73479">
        <ele>880.819275</ele>
      </trkpt>
      <trkpt lat="47.2065" lon="6.73471">
        <ele>884.732483</ele>
      </trkpt>
      <trkpt lat="47.20597" lon="6.73455">
        <ele>889.702026</ele>
      </trkpt>
      <trkpt lat="47.20556" lon="6.73439">
        <ele>892.4</ele>
      </trkpt>
      <trkpt lat="47.20548" lon="6.73476">
        <ele>891.6</ele>
      </trkpt>
      <trkpt lat="47.20553" lon="6.73487">
        <ele>891.3</ele>
      </trkpt>
      <trkpt lat="47.20549" lon="6.73547">
        <ele>890.2</ele>
      </trkpt>
      <trkpt lat="47.20539" lon="6.7358">
        <ele>890.7</ele>
      </trkpt>
      <trkpt lat="47.20539" lon="6.73599">
        <ele>891.6</ele>
      </trkpt>
      <trkpt lat="47.20535" lon="6.73633">
        <ele>892.3</ele>
      </trkpt>
      <trkpt lat="47.20539" lon="6.73672">
        <ele>894</ele>
      </trkpt>
      <trkpt lat="47.20545" lon="6.73706">
        <ele>893.7</ele>
      </trkpt>
      <trkpt lat="47.20523" lon="6.73736">
        <ele>896.5</ele>
      </trkpt>
      <trkpt lat="47.20508" lon="6.73757">
        <ele>895.25885</ele>
      </trkpt>
      <trkpt lat="47.20469" lon="6.73772">
        <ele>916.6</ele>
      </trkpt>
      <trkpt lat="47.20456" lon="6.73791">
        <ele>920.1</ele>
      </trkpt>
      <trkpt lat="47.20446" lon="6.73821">
        <ele>924.5</ele>
      </trkpt>
      <trkpt lat="47.2044" lon="6.73852">
        <ele>930</ele>
      </trkpt>
      <trkpt lat="47.20408" lon="6.73835">
        <ele>941.7</ele>
      </trkpt>
      <trkpt lat="47.20403" lon="6.73861">
        <ele>943.7</ele>
      </trkpt>
      <trkpt lat="47.20394" lon="6.73869">
        <ele>944.3</ele>
      </trkpt>
      <trkpt lat="47.20393" lon="6.73886">
        <ele>944.4</ele>
      </trkpt>
      <trkpt lat="47.20383" lon="6.73899">
        <ele>944.6</ele>
      </trkpt>
      <trkpt lat="47.20384" lon="6.73921">
        <ele>943.6</ele>
      </trkpt>
      <trkpt lat="47.20376" lon="6.73939">
        <ele>942.322998</ele>
      </trkpt>
      <trkpt lat="47.20385" lon="6.7395">
        <ele>942.798401</ele>
      </trkpt>
      <trkpt lat="47.20374" lon="6.73947">
        <ele>942.304321</ele>
      </trkpt>
      <trkpt lat="47.20268" lon="6.73896">
        <ele>937.109741</ele>
      </trkpt>
      <trkpt lat="47.2021" lon="6.73873">
        <ele>935.621277</ele>
      </trkpt>
      <trkpt lat="47.2017" lon="6.73855">
        <ele>934.179993</ele>
      </trkpt>
      <trkpt lat="47.20149" lon="6.73856">
        <ele>933.661255</ele>
      </trkpt>
      <trkpt lat="47.20098" lon="6.73883">
        <ele>930.632751</ele>
      </trkpt>
      <trkpt lat="47.20059" lon="6.73912">
        <ele>927.017883</ele>
      </trkpt>
      <trkpt lat="47.20113" lon="6.73918">
        <ele>931.613892</ele>
      </trkpt>
      <trkpt lat="47.20141" lon="6.73912">
        <ele>930.3</ele>
      </trkpt>
      <trkpt lat="47.20168" lon="6.73919">
        <ele>934.902588</ele>
      </trkpt>
      <trkpt lat="47.2021" lon="6.73967">
        <ele>937.030579</ele>
      </trkpt>
      <trkpt lat="47.20248" lon="6.74028">
        <ele>938.863647</ele>
      </trkpt>
      <trkpt lat="47.20313" lon="6.7416">
        <ele>939.33374</ele>
      </trkpt>
      <trkpt lat="47.20358" lon="6.74214">
        <ele>936.34259</ele>
      </trkpt>
      <trkpt lat="47.204" lon="6.74268">
        <ele>934.096008</ele>
      </trkpt>
      <trkpt lat="47.2043" lon="6.74337">
        <ele>930.395081</ele>
      </trkpt>
      <trkpt lat="47.20459" lon="6.74402">
        <ele>939.6</ele>
      </trkpt>
      <trkpt lat="47.20479" lon="6.74436">
        <ele>936.6</ele>
      </trkpt>
      <trkpt lat="47.20493" lon="6.74471">
        <ele>929.481262</ele>
      </trkpt>
      <trkpt lat="47.20524" lon="6.74537">
        <ele>930.315186</ele>
      </trkpt>
      <trkpt lat="47.20569" lon="6.74636">
        <ele>937.5</ele>
      </trkpt>
      <trkpt lat="47.20607" lon="6.74673">
        <ele>943.6</ele>
      </trkpt>
      <trkpt lat="47.20629" lon="6.74693">
        <ele>945.7</ele>
      </trkpt>
      <trkpt lat="47.20663" lon="6.74772">
        <ele>950.3</ele>
      </trkpt>
      <trkpt lat="47.20696" lon="6.74827">
        <ele>940.652771</ele>
      </trkpt>
      <trkpt lat="47.20768" lon="6.74949">
        <ele>937.194519</ele>
      </trkpt>
      <trkpt lat="47.20805" lon="6.75011">
        <ele>936.172729</ele>
      </trkpt>
      <trkpt lat="47.20819" lon="6.75043">
        <ele>944.2</ele>
      </trkpt>
      <trkpt lat="47.20833" lon="6.75078">
        <ele>943.8</ele>
      </trkpt>
      <trkpt lat="47.20856" lon="6.75142">
        <ele>945.7</ele>
      </trkpt>
      <trkpt lat="47.20882" lon="6.75209">
        <ele>931.96936</ele>
      </trkpt>
      <trkpt lat="47.20924" lon="6.75263">
        <ele>952.7</ele>
      </trkpt>
      <trkpt lat="47.20981" lon="6.75305">
        <ele>955.6</ele>
      </trkpt>
      <trkpt lat="47.21003" lon="6.75347">
        <ele>958.1</ele>
      </trkpt>
      <trkpt lat="47.21034" lon="6.75409">
        <ele>958.6</ele>
      </trkpt>
      <trkpt lat="47.21081" lon="6.75417">
        <ele>942.05127</ele>
      </trkpt>
      <trkpt lat="47.21129" lon="6.75456">
        <ele>959.8</ele>
      </trkpt>
      <trkpt lat="47.21185" lon="6.75505">
        <ele>957.4</ele>
      </trkpt>
      <trkpt lat="47.21209" lon="6.75535">
        <ele>956.1</ele>
      </trkpt>
      <trkpt lat="47.21225" lon="6.75515">
        <ele>957.5</ele>
      </trkpt>
      <trkpt lat="47.2125" lon="6.7554">
        <ele>953.5</ele>
      </trkpt>
      <trkpt lat="47.2131" lon="6.75546">
        <ele>949.1</ele>
      </trkpt>
      <trkpt lat="47.21333" lon="6.75565">
        <ele>948.6</ele>
      </trkpt>
      <trkpt lat="47.21352" lon="6.75592">
        <ele>938.8</ele>
      </trkpt>
      <trkpt lat="47.21363" lon="6.75629">
        <ele>935</ele>
      </trkpt>
      <trkpt lat="47.21365" lon="6.75663">
        <ele>936</ele>
      </trkpt>
      <trkpt lat="47.21387" lon="6.75734">
        <ele>936.7</ele>
      </trkpt>
      <trkpt lat="47.2142" lon="6.75847">
        <ele>933.7</ele>
      </trkpt>
      <trkpt lat="47.21445" lon="6.75914">
        <ele>928.8</ele>
      </trkpt>
      <trkpt lat="47.2146" lon="6.75942">
        <ele>928.8</ele>
      </trkpt>
      <trkpt lat="47.21492" lon="6.76001">
        <ele>929.6</ele>
      </trkpt>
      <trkpt lat="47.21506" lon="6.76027">
        <ele>925.72522</ele>
      </trkpt>
      <trkpt lat="47.21552" lon="6.7607">
        <ele>925.001953</ele>
      </trkpt>
      <trkpt lat="47.21604" lon="6.76069">
        <ele>923.450012</ele>
      </trkpt>
      <trkpt lat="47.21606" lon="6.76074">
        <ele>923.38501</ele>
      </trkpt>
      <trkpt lat="47.21594" lon="6.76152">
        <ele>923.1</ele>
      </trkpt>
      <trkpt lat="47.21655" lon="6.76181">
        <ele>912.075012</ele>
      </trkpt>
      <trkpt lat="47.21704" lon="6.76218">
        <ele>901.924988</ele>
      </trkpt>
      <trkpt lat="47.21757" lon="6.76236">
        <ele>896.793274</ele>
      </trkpt>
      <trkpt lat="47.21805" lon="6.76254">
        <ele>892.927979</ele>
      </trkpt>
      <trkpt lat="47.21818" lon="6.76254">
        <ele>892.345276</ele>
      </trkpt>
      <trkpt lat="47.21848" lon="6.7626">
        <ele>887.8</ele>
      </trkpt>
      <trkpt lat="47.21849" lon="6.76274">
        <ele>886.7</ele>
      </trkpt>
      <trkpt lat="47.21837" lon="6.7633">
        <ele>885.1</ele>
      </trkpt>
      <trkpt lat="47.21835" lon="6.7636">
        <ele>882.9</ele>
      </trkpt>
      <trkpt lat="47.21843" lon="6.7638">
        <ele>884.890015</ele>
      </trkpt>
      <trkpt lat="47.21865" lon="6.76417">
        <ele>881.3</ele>
      </trkpt>
      <trkpt lat="47.21892" lon="6.76456">
        <ele>882.925964</ele>
      </trkpt>
      <trkpt lat="47.219" lon="6.76476">
        <ele>882.219971</ele>
      </trkpt>
      <trkpt lat="47.21919" lon="6.76556">
        <ele>879.838745</ele>
      </trkpt>
      <trkpt lat="47.21941" lon="6.76632">
        <ele>876.695435</ele>
      </trkpt>
      <trkpt lat="47.21932" lon="6.76679">
        <ele>871.9</ele>
      </trkpt>
      <trkpt lat="47.21966" lon="6.7669">
        <ele>872.993469</ele>
      </trkpt>
      <trkpt lat="47.22021" lon="6.76717">
        <ele>870.787476</ele>
      </trkpt>
      <trkpt lat="47.22068" lon="6.76745">
        <ele>869.1</ele>
      </trkpt>
      <trkpt lat="47.22122" lon="6.76778">
        <ele>867.4</ele>
      </trkpt>
      <trkpt lat="47.2217" lon="6.76812">
        <ele>869.6</ele>
      </trkpt>
      <trkpt lat="47.22274" lon="6.76888">
        <ele>867.072083</ele>
      </trkpt>
      <trkpt lat="47.22318" lon="6.7693">
        <ele>873.1</ele>
      </trkpt>
      <trkpt lat="47.2234" lon="6.76974">
        <ele>876</ele>
      </trkpt>
      <trkpt lat="47.2236" lon="6.77027">
        <ele>870.8</ele>
      </trkpt>
      <trkpt lat="47.22381" lon="6.77081">
        <ele>869.6</ele>
      </trkpt>
      <trkpt lat="47.2241" lon="6.77135">
        <ele>865.5</ele>
      </trkpt>
      <trkpt lat="47.22448" lon="6.77144">
        <ele>867.5</ele>
      </trkpt>
      <trkpt lat="47.22503" lon="6.77117">
        <ele>866.8</ele>
      </trkpt>
      <trkpt lat="47.22537" lon="6.77077">
        <ele>865.041016</ele>
      </trkpt>
      <trkpt lat="47.22555" lon="6.76993">
        <ele>869.7</ele>
      </trkpt>
      <trkpt lat="47.22553" lon="6.76932">
        <ele>871.8</ele>
      </trkpt>
      <trkpt lat="47.22554" lon="6.76896">
        <ele>867.623596</ele>
      </trkpt>
      <trkpt lat="47.22558" lon="6.7687">
        <ele>875.6</ele>
      </trkpt>
      <trkpt lat="47.2258" lon="6.76823">
        <ele>876.5</ele>
      </trkpt>
      <trkpt lat="47.22593" lon="6.76796">
        <ele>863.619019</ele>
      </trkpt>
      <trkpt lat="47.22602" lon="6.76697">
        <ele>873.5</ele>
      </trkpt>
      <trkpt lat="47.22611" lon="6.76626">
        <ele>868.8</ele>
      </trkpt>
      <trkpt lat="47.2263" lon="6.76552">
        <ele>864.9</ele>
      </trkpt>
      <trkpt lat="47.22651" lon="6.76529">
        <ele>864.5</ele>
      </trkpt>
      <trkpt lat="47.22702" lon="6.76516">
        <ele>863.1</ele>
      </trkpt>
      <trkpt lat="47.22758" lon="6.76492">
        <ele>865</ele>
      </trkpt>
      <trkpt lat="47.22798" lon="6.7644">
        <ele>873.877502</ele>
      </trkpt>
      <trkpt lat="47.22809" lon="6.76415">
        <ele>876.4</ele>
      </trkpt>
      <trkpt lat="47.22828" lon="6.76417">
        <ele>879</ele>
      </trkpt>
      <trkpt lat="47.22872" lon="6.76485">
        <ele>884.6</ele>
      </trkpt>
      <trkpt lat="47.22893" lon="6.76532">
        <ele>886.660278</ele>
      </trkpt>
      <trkpt lat="47.229" lon="6.76543">
        <ele>883.1</ele>
      </trkpt>
      <trkpt lat="47.22906" lon="6.7653">
        <ele>884.3</ele>
      </trkpt>
      <trkpt lat="47.22908" lon="6.7639">
        <ele>893.7</ele>
      </trkpt>
      <trkpt lat="47.22904" lon="6.76308">
        <ele>897.2</ele>
      </trkpt>
      <trkpt lat="47.22917" lon="6.76232">
        <ele>914.6</ele>
      </trkpt>
      <trkpt lat="47.22917" lon="6.76168">
        <ele>914.4</ele>
      </trkpt>
      <trkpt lat="47.22913" lon="6.76095">
        <ele>915.2</ele>
      </trkpt>
      <trkpt lat="47.22922" lon="6.76065">
        <ele>925</ele>
      </trkpt>
      <trkpt lat="47.22947" lon="6.76074">
        <ele>926.5</ele>
      </trkpt>
      <trkpt lat="47.22992" lon="6.76146">
        <ele>930.3</ele>
      </trkpt>
      <trkpt lat="47.2301" lon="6.76157">
        <ele>932.9</ele>
      </trkpt>
      <trkpt lat="47.23032" lon="6.76225">
        <ele>940.034851</ele>
      </trkpt>
      <trkpt lat="47.23056" lon="6.76266">
        <ele>945.612427</ele>
      </trkpt>
      <trkpt lat="47.23062" lon="6.76278">
        <ele>945.703125</ele>
      </trkpt>
      <trkpt lat="47.2307" lon="6.76325">
        <ele>937.9</ele>
      </trkpt>
      <trkpt lat="47.23084" lon="6.7639">
        <ele>938.8</ele>
      </trkpt>
      <trkpt lat="47.23119" lon="6.76528">
        <ele>938.697205</ele>
      </trkpt>
      <trkpt lat="47.23111" lon="6.76554">
        <ele>937.093262</ele>
      </trkpt>
      <trkpt lat="47.23145" lon="6.7675">
        <ele>928.3</ele>
      </trkpt>
      <trkpt lat="47.23166" lon="6.76801">
        <ele>922.8</ele>
      </trkpt>
      <trkpt lat="47.23185" lon="6.76864">
        <ele>915.438171</ele>
      </trkpt>
      <trkpt lat="47.23196" lon="6.76915">
        <ele>913.209106</ele>
      </trkpt>
      <trkpt lat="47.23207" lon="6.76942">
        <ele>913.451782</ele>
      </trkpt>
      <trkpt lat="47.23221" lon="6.76982">
        <ele>905.6</ele>
      </trkpt>
      <trkpt lat="47.23232" lon="6.7701">
        <ele>903.8</ele>
      </trkpt>
      <trkpt lat="47.23243" lon="6.77054">
        <ele>902.207214</ele>
      </trkpt>
      <trkpt lat="47.23262" lon="6.77108">
        <ele>894</ele>
      </trkpt>
      <trkpt lat="47.23295" lon="6.7721">
        <ele>890.474854</ele>
      </trkpt>
      <trkpt lat="47.23324" lon="6.773">
        <ele>880.587463</ele>
      </trkpt>
      <trkpt lat="47.2335" lon="6.7737">
        <ele>876.907227</ele>
      </trkpt>
      <trkpt lat="47.23399" lon="6.77475">
        <ele>871.2</ele>
      </trkpt>
      <trkpt lat="47.2343" lon="6.77539">
        <ele>859.1</ele>
      </trkpt>
      <trkpt lat="47.23467" lon="6.77612">
        <ele>854.9</ele>
      </trkpt>
      <trkpt lat="47.23528" lon="6.77717">
        <ele>847.1</ele>
      </trkpt>
      <trkpt lat="47.23534" lon="6.77766">
        <ele>850.1</ele>
      </trkpt>
      <trkpt lat="47.23578" lon="6.77854">
        <ele>848.921875</ele>
      </trkpt>
      <trkpt lat="47.23605" lon="6.77918">
        <ele>843.752197</ele>
      </trkpt>
      <trkpt lat="47.23634" lon="6.77981">
        <ele>840.603577</ele>
      </trkpt>
      <trkpt lat="47.23662" lon="6.78048">
        <ele>835.783325</ele>
      </trkpt>
      <trkpt lat="47.237" lon="6.78104">
        <ele>836.614563</ele>
      </trkpt>
      <trkpt lat="47.2374" lon="6.78157">
        <ele>836.861816</ele>
      </trkpt>
      <trkpt lat="47.23789" lon="6.78192">
        <ele>845.1</ele>
      </trkpt>
      <trkpt lat="47.23831" lon="6.78222">
        <ele>844.6</ele>
      </trkpt>
      <trkpt lat="47.23852" lon="6.78265">
        <ele>834.256409</ele>
      </trkpt>
      <trkpt lat="47.23873" lon="6.78343">
        <ele>828.280701</ele>
      </trkpt>
      <trkpt lat="47.23875" lon="6.78366">
        <ele>830.3</ele>
      </trkpt>
      <trkpt lat="47.23895" lon="6.78361">
        <ele>832.1</ele>
      </trkpt>
      <trkpt lat="47.23933" lon="6.78371">
        <ele>835</ele>
      </trkpt>
      <trkpt lat="47.23991" lon="6.78401">
        <ele>833.313599</ele>
      </trkpt>
      <trkpt lat="47.24019" lon="6.78411">
        <ele>835.535583</ele>
      </trkpt>
      <trkpt lat="47.24056" lon="6.78431">
        <ele>831.4</ele>
      </trkpt>
      <trkpt lat="47.24096" lon="6.7849">
        <ele>828</ele>
      </trkpt>
      <trkpt lat="47.24124" lon="6.78503">
        <ele>825.2</ele>
      </trkpt>
      <trkpt lat="47.24147" lon="6.78528">
        <ele>823.7</ele>
      </trkpt>
      <trkpt lat="47.24184" lon="6.78534">
        <ele>821.2</ele>
      </trkpt>
      <trkpt lat="47.24195" lon="6.78562">
        <ele>822.6</ele>
      </trkpt>
      <trkpt lat="47.24187" lon="6.78621">
        <ele>824</ele>
      </trkpt>
      <trkpt lat="47.24334" lon="6.78747">
        <ele>825.653503</ele>
      </trkpt>
      <trkpt lat="47.24389" lon="6.7876">
        <ele>827.174438</ele>
      </trkpt>
      <trkpt lat="47.24426" lon="6.78793">
        <ele>827.970886</ele>
      </trkpt>
      <trkpt lat="47.24456" lon="6.78864">
        <ele>825.884705</ele>
      </trkpt>
      <trkpt lat="47.24496" lon="6.78927">
        <ele>826.142517</ele>
      </trkpt>
      <trkpt lat="47.24542" lon="6.78972">
        <ele>825.567749</ele>
      </trkpt>
      <trkpt lat="47.24588" lon="6.79013">
        <ele>827.785278</ele>
      </trkpt>
      <trkpt lat="47.24632" lon="6.79066">
        <ele>832.846802</ele>
      </trkpt>
      <trkpt lat="47.24674" lon="6.79123">
        <ele>832.37854</ele>
      </trkpt>
      <trkpt lat="47.24711" lon="6.79181">
        <ele>831.039978</ele>
      </trkpt>
      <trkpt lat="47.24733" lon="6.79259">
        <ele>830.72998</ele>
      </trkpt>
      <trkpt lat="47.24745" lon="6.79339">
        <ele>830.967896</ele>
      </trkpt>
      <trkpt lat="47.24769" lon="6.79586">
        <ele>837.123413</ele>
      </trkpt>
      <trkpt lat="47.24783" lon="6.79663">
        <ele>831.852722</ele>
      </trkpt>
      <trkpt lat="47.24787" lon="6.79692">
        <ele>830.704102</ele>
      </trkpt>
      <trkpt lat="47.24775" lon="6.7977">
        <ele>831.767395</ele>
      </trkpt>
      <trkpt lat="47.24757" lon="6.79846">
        <ele>832.059998</ele>
      </trkpt>
      <trkpt lat="47.24739" lon="6.79926">
        <ele>831.54248</ele>
      </trkpt>
      <trkpt lat="47.24737" lon="6.7995">
        <ele>831.523804</ele>
      </trkpt>
      <trkpt lat="47.24743" lon="6.80035">
        <ele>830.400146</ele>
      </trkpt>
      <trkpt lat="47.24762" lon="6.80214">
        <ele>826.840027</ele>
      </trkpt>
      <trkpt lat="47.24757" lon="6.80229">
        <ele>826.419983</ele>
      </trkpt>
      <trkpt lat="47.24701" lon="6.80248">
        <ele>823.80896</ele>
      </trkpt>
      <trkpt lat="47.24686" lon="6.8026">
        <ele>823.179932</ele>
      </trkpt>
      <trkpt lat="47.24655" lon="6.80308">
        <ele>820.50769</ele>
      </trkpt>
      <trkpt lat="47.24632" lon="6.80384">
        <ele>818.483276</ele>
      </trkpt>
      <trkpt lat="47.24608" lon="6.80457">
        <ele>817</ele>
      </trkpt>
      <trkpt lat="47.24567" lon="6.80518">
        <ele>814.350037</ele>
      </trkpt>
      <trkpt lat="47.24523" lon="6.80568">
        <ele>812.633606</ele>
      </trkpt>
      <trkpt lat="47.2448" lon="6.80614">
        <ele>809.759277</ele>
      </trkpt>
      <trkpt lat="47.24434" lon="6.8066">
        <ele>805.9</ele>
      </trkpt>
      <trkpt lat="47.24405" lon="6.80733">
        <ele>802.262573</ele>
      </trkpt>
      <trkpt lat="47.24387" lon="6.80788">
        <ele>802.305481</ele>
      </trkpt>
      <trkpt lat="47.24379" lon="6.80794">
        <ele>802.309998</ele>
      </trkpt>
      <trkpt lat="47.24349" lon="6.8079">
        <ele>801.070801</ele>
      </trkpt>
      <trkpt lat="47.24324" lon="6.80793">
        <ele>800.472412</ele>
      </trkpt>
      <trkpt lat="47.24208" lon="6.80844">
        <ele>798.2</ele>
      </trkpt>
      <trkpt lat="47.24165" lon="6.80877">
        <ele>798.563721</ele>
      </trkpt>
      <trkpt lat="47.24135" lon="6.80924">
        <ele>798.843567</ele>
      </trkpt>
      <trkpt lat="47.24109" lon="6.81003">
        <ele>797.90686</ele>
      </trkpt>
      <trkpt lat="47.24059" lon="6.81153">
        <ele>797.567505</ele>
      </trkpt>
      <trkpt lat="47.24038" lon="6.81228">
        <ele>798.003418</ele>
      </trkpt>
      <trkpt lat="47.24019" lon="6.81308">
        <ele>797.813721</ele>
      </trkpt>
      <trkpt lat="47.24015" lon="6.81331">
        <ele>797.632019</ele>
      </trkpt>
      <trkpt lat="47.24005" lon="6.8141">
        <ele>798.496704</ele>
      </trkpt>
      <trkpt lat="47.23989" lon="6.8157">
        <ele>802.068298</ele>
      </trkpt>
      <trkpt lat="47.23971" lon="6.81645">
        <ele>806.358765</ele>
      </trkpt>
      <trkpt lat="47.23941" lon="6.81711">
        <ele>809.406128</ele>
      </trkpt>
      <trkpt lat="47.23911" lon="6.81777">
        <ele>812.801331</ele>
      </trkpt>
      <trkpt lat="47.23858" lon="6.81791">
        <ele>818.452637</ele>
      </trkpt>
      <trkpt lat="47.23779" lon="6.81778">
        <ele>822.5</ele>
      </trkpt>
      <trkpt lat="47.23749" lon="6.81785">
        <ele>822.440002</ele>
      </trkpt>
      <trkpt lat="47.23718" lon="6.8185">
        <ele>823.909363</ele>
      </trkpt>
      <trkpt lat="47.2369" lon="6.81923">
        <ele>827.449524</ele>
      </trkpt>
      <trkpt lat="47.23665" lon="6.81981">
        <ele>836.1</ele>
      </trkpt>
      <trkpt lat="47.23622" lon="6.82046">
        <ele>835.758911</ele>
      </trkpt>
      <trkpt lat="47.23591" lon="6.82111">
        <ele>836.822388</ele>
      </trkpt>
      <trkpt lat="47.23547" lon="6.82162">
        <ele>837.233337</ele>
      </trkpt>
      <trkpt lat="47.23514" lon="6.82224">
        <ele>838.091431</ele>
      </trkpt>
      <trkpt lat="47.23497" lon="6.823">
        <ele>839.344849</ele>
      </trkpt>
      <trkpt lat="47.23493" lon="6.82374">
        <ele>841.669983</ele>
      </trkpt>
      <trkpt lat="47.235" lon="6.82453">
        <ele>844.224915</ele>
      </trkpt>
      <trkpt lat="47.23509" lon="6.82532">
        <ele>845.267517</ele>
      </trkpt>
      <trkpt lat="47.2351" lon="6.82612">
        <ele>846.028748</ele>
      </trkpt>
      <trkpt lat="47.23493" lon="6.82688">
        <ele>846.872375</ele>
      </trkpt>
      <trkpt lat="47.23461" lon="6.82753">
        <ele>846.833008</ele>
      </trkpt>
      <trkpt lat="47.23418" lon="6.82808">
        <ele>846.024231</ele>
      </trkpt>
      <trkpt lat="47.23368" lon="6.82842">
        <ele>845.3</ele>
      </trkpt>
      <trkpt lat="47.23322" lon="6.82881">
        <ele>847.566162</ele>
      </trkpt>
      <trkpt lat="47.23272" lon="6.82913">
        <ele>849.86377</ele>
      </trkpt>
      <trkpt lat="47.23225" lon="6.82948">
        <ele>851.565002</ele>
      </trkpt>
      <trkpt lat="47.23216" lon="6.8296">
        <ele>851.734985</ele>
      </trkpt>
      <trkpt lat="47.23158" lon="6.8299">
        <ele>855.8</ele>
      </trkpt>
      <trkpt lat="47.23114" lon="6.8301">
        <ele>852.57373</ele>
      </trkpt>
      <trkpt lat="47.23058" lon="6.83021">
        <ele>853.47467</ele>
      </trkpt>
      <trkpt lat="47.23003" lon="6.83016">
        <ele>854.722656</ele>
      </trkpt>
      <trkpt lat="47.22949" lon="6.82998">
        <ele>856.44928</ele>
      </trkpt>
      <trkpt lat="47.22904" lon="6.82967">
        <ele>857.3</ele>
      </trkpt>
      <trkpt lat="47.22858" lon="6.82926">
        <ele>857.7</ele>
      </trkpt>
      <trkpt lat="47.22824" lon="6.82881">
        <ele>861.5</ele>
      </trkpt>
      <trkpt lat="47.22796" lon="6.82834">
        <ele>862.015015</ele>
      </trkpt>
      <trkpt lat="47.22754" lon="6.82775">
        <ele>864.296814</ele>
      </trkpt>
      <trkpt lat="47.22699" lon="6.82728">
        <ele>866.029968</ele>
      </trkpt>
      <trkpt lat="47.22651" lon="6.8268">
        <ele>869.7</ele>
      </trkpt>
      <trkpt lat="47.22597" lon="6.82665">
        <ele>870.069397</ele>
      </trkpt>
      <trkpt lat="47.22542" lon="6.82658">
        <ele>871.635071</ele>
      </trkpt>
      <trkpt lat="47.22487" lon="6.8266">
        <ele>873.199219</ele>
      </trkpt>
      <trkpt lat="47.22478" lon="6.82666">
        <ele>873.947998</ele>
      </trkpt>
      <trkpt lat="47.22435" lon="6.82615">
        <ele>874.29126</ele>
      </trkpt>
      <trkpt lat="47.22381" lon="6.82577">
        <ele>877.3</ele>
      </trkpt>
      <trkpt lat="47.2233" lon="6.82529">
        <ele>882.1</ele>
      </trkpt>
      <trkpt lat="47.22297" lon="6.82469">
        <ele>878.104736</ele>
      </trkpt>
      <trkpt lat="47.22261" lon="6.82386">
        <ele>883</ele>
      </trkpt>
      <trkpt lat="47.22229" lon="6.82341">
        <ele>885.044983</ele>
      </trkpt>
      <trkpt lat="47.22181" lon="6.82301">
        <ele>883</ele>
      </trkpt>
      <trkpt lat="47.22131" lon="6.82285">
        <ele>888.768799</ele>
      </trkpt>
      <trkpt lat="47.22076" lon="6.82264">
        <ele>887.553528</ele>
      </trkpt>
      <trkpt lat="47.22022" lon="6.82249">
        <ele>885.935059</ele>
      </trkpt>
      <trkpt lat="47.22" lon="6.82249">
        <ele>885.327515</ele>
      </trkpt>
      <trkpt lat="47.21956" lon="6.82261">
        <ele>884.289429</ele>
      </trkpt>
      <trkpt lat="47.21885" lon="6.82292">
        <ele>881.6</ele>
      </trkpt>
      <trkpt lat="47.21855" lon="6.82261">
        <ele>881.272034</ele>
      </trkpt>
      <trkpt lat="47.21808" lon="6.82217">
        <ele>878.82251</ele>
      </trkpt>
      <trkpt lat="47.21752" lon="6.82188">
        <ele>875.255005</ele>
      </trkpt>
      <trkpt lat="47.21689" lon="6.82177">
        <ele>872.023743</ele>
      </trkpt>
      <trkpt lat="47.21671" lon="6.82172">
        <ele>871.161255</ele>
      </trkpt>
      <trkpt lat="47.21653" lon="6.82159">
        <ele>870.283752</ele>
      </trkpt>
      <trkpt lat="47.21639" lon="6.82137">
        <ele>869.630005</ele>
      </trkpt>
      <trkpt lat="47.21611" lon="6.82053">
        <ele>868.818726</ele>
      </trkpt>
      <trkpt lat="47.21594" lon="6.82013">
        <ele>868.586243</ele>
      </trkpt>
      <trkpt lat="47.21583" lon="6.82013">
        <ele>868.10376</ele>
      </trkpt>
      <trkpt lat="47.21574" lon="6.82021">
        <ele>867.541321</ele>
      </trkpt>
      <trkpt lat="47.21539" lon="6.82085">
        <ele>866.615295</ele>
      </trkpt>
      <trkpt lat="47.21487" lon="6.82106">
        <ele>869.5</ele>
      </trkpt>
      <trkpt lat="47.21458" lon="6.82119">
        <ele>870.2</ele>
      </trkpt>
      <trkpt lat="47.21442" lon="6.82151">
        <ele>870.557434</ele>
      </trkpt>
      <trkpt lat="47.21356" lon="6.82253">
        <ele>868.166992</ele>
      </trkpt>
      <trkpt lat="47.21315" lon="6.82306">
        <ele>865.875</ele>
      </trkpt>
      <trkpt lat="47.21304" lon="6.82319">
        <ele>865.31488</ele>
      </trkpt>
      <trkpt lat="47.21291" lon="6.82326">
        <ele>864.736206</ele>
      </trkpt>
      <trkpt lat="47.21232" lon="6.82326">
        <ele>861.47998</ele>
      </trkpt>
      <trkpt lat="47.21224" lon="6.82327">
        <ele>861.015015</ele>
      </trkpt>
      <trkpt lat="47.21169" lon="6.82349">
        <ele>856.796814</ele>
      </trkpt>
      <trkpt lat="47.21053" lon="6.82401">
        <ele>849.924988</ele>
      </trkpt>
      <trkpt lat="47.20938" lon="6.8245">
        <ele>848.411621</ele>
      </trkpt>
      <trkpt lat="47.20888" lon="6.82486">
        <ele>848.239685</ele>
      </trkpt>
      <trkpt lat="47.20732" lon="6.82588">
        <ele>845.938721</ele>
      </trkpt>
      <trkpt lat="47.20574" lon="6.82686">
        <ele>844.755005</ele>
      </trkpt>
      <trkpt lat="47.20523" lon="6.82715">
        <ele>845.364197</ele>
      </trkpt>
      <trkpt lat="47.2047" lon="6.8275">
        <ele>844.44458</ele>
      </trkpt>
      <trkpt lat="47.20429" lon="6.82801">
        <ele>844.333801</ele>
      </trkpt>
      <trkpt lat="47.20406" lon="6.82876">
        <ele>842.976257</ele>
      </trkpt>
      <trkpt lat="47.20342" lon="6.83185">
        <ele>841.974426</ele>
      </trkpt>
      <trkpt lat="47.20275" lon="6.83495">
        <ele>842.290955</ele>
      </trkpt>
      <trkpt lat="47.20258" lon="6.8357">
        <ele>843.866394</ele>
      </trkpt>
      <trkpt lat="47.20253" lon="6.83648">
        <ele>847.679749</ele>
      </trkpt>
      <trkpt lat="47.20255" lon="6.83756">
        <ele>848.7</ele>
      </trkpt>
      <trkpt lat="47.20241" lon="6.83807">
        <ele>856.335693</ele>
      </trkpt>
      <trkpt lat="47.20227" lon="6.83832">
        <ele>857.526794</ele>
      </trkpt>
      <trkpt lat="47.20195" lon="6.83896">
        <ele>858.992676</ele>
      </trkpt>
      <trkpt lat="47.20175" lon="6.83933">
        <ele>869.1</ele>
      </trkpt>
      <trkpt lat="47.20128" lon="6.83971">
        <ele>875.4</ele>
      </trkpt>
      <trkpt lat="47.2009" lon="6.84005">
        <ele>873.4</ele>
      </trkpt>
      <trkpt lat="47.20068" lon="6.84023">
        <ele>877</ele>
      </trkpt>
      <trkpt lat="47.20045" lon="6.84044">
        <ele>878.3</ele>
      </trkpt>
    </trkseg>
  </trk>
</gpx>